sensor_id;sensor_type;location;lat;lon;timestamp;pressure;altitude;pressure_sealevel;temperature;humidity
42169;BME280;27838;43.858;25.974;2023-02-11T00:00:40;103166.13;;;2.24;44.99
42169;BME280;27838;43.858;25.974;2023-02-11T00:03:07;103158.28;;;2.23;45.03
42169;BME280;27838;43.858;25.974;2023-02-11T00:05:34;103161.84;;;2.25;45.22
42169;BME280;27838;43.858;25.974;2023-02-11T00:08:00;103165.88;;;2.21;44.58
42169;BME280;27838;43.858;25.974;2023-02-11T00:10:27;103163.78;;;2.16;44.98
42169;BME280;27838;43.858;25.974;2023-02-11T00:12:53;103164.41;;;2.13;45.04
42169;BME280;27838;43.858;25.974;2023-02-11T00:15:20;103160.72;;;2.10;44.46
42169;BME280;27838;43.858;25.974;2023-02-11T00:17:46;103162.28;;;2.07;44.57
42169;BME280;27838;43.858;25.974;2023-02-11T00:20:13;103166.31;;;2.04;44.55
42169;BME280;27838;43.858;25.974;2023-02-11T00:22:39;103170.59;;;2.03;44.88
42169;BME280;27838;43.858;25.974;2023-02-11T00:25:06;103162.63;;;2.00;44.91
42169;BME280;27838;43.858;25.974;2023-02-11T00:27:33;103160.19;;;2.02;45.17
42169;BME280;27838;43.858;25.974;2023-02-11T00:29:59;103150.78;;;2.02;45.12
42169;BME280;27838;43.858;25.974;2023-02-11T00:32:26;103148.09;;;2.01;44.81
42169;BME280;27838;43.858;25.974;2023-02-11T00:34:53;103142.84;;;1.99;44.84
42169;BME280;27838;43.858;25.974;2023-02-11T00:37:20;103147.19;;;2.00;45.39
42169;BME280;27838;43.858;25.974;2023-02-11T00:39:47;103131.75;;;2.00;44.93
42169;BME280;27838;43.858;25.974;2023-02-11T00:42:14;103136.25;;;2.03;45.22
42169;BME280;27838;43.858;25.974;2023-02-11T00:44:41;103130.06;;;2.01;45.26
42169;BME280;27838;43.858;25.974;2023-02-11T00:47:07;103120.91;;;1.93;45.47
42169;BME280;27838;43.858;25.974;2023-02-11T00:49:34;103132.44;;;1.98;45.01
42169;BME280;27838;43.858;25.974;2023-02-11T00:52:01;103132.34;;;1.96;45.29
42169;BME280;27838;43.858;25.974;2023-02-11T00:54:27;103124.25;;;1.92;45.50
42169;BME280;27838;43.858;25.974;2023-02-11T00:56:54;103124.25;;;1.92;45.15
42169;BME280;27838;43.858;25.974;2023-02-11T00:59:20;103126.47;;;1.87;45.31
42169;BME280;27838;43.858;25.974;2023-02-11T01:01:48;103120.34;;;1.73;45.88
42169;BME280;27838;43.858;25.974;2023-02-11T01:04:14;103130.63;;;1.85;46.10
42169;BME280;27838;43.858;25.974;2023-02-11T01:06:41;103129.84;;;1.86;45.90
42169;BME280;27838;43.858;25.974;2023-02-11T01:09:07;103128.53;;;1.91;45.58
42169;BME280;27838;43.858;25.974;2023-02-11T01:11:34;103131.84;;;1.90;45.89
42169;BME280;27838;43.858;25.974;2023-02-11T01:14:01;103129.41;;;1.92;45.53
42169;BME280;27838;43.858;25.974;2023-02-11T01:16:27;103132.09;;;1.93;45.56
42169;BME280;27838;43.858;25.974;2023-02-11T01:18:54;103131.41;;;1.96;45.50
42169;BME280;27838;43.858;25.974;2023-02-11T01:21:23;103127.94;;;1.95;45.85
42169;BME280;27838;43.858;25.974;2023-02-11T01:23:49;103131.41;;;1.96;45.92
42169;BME280;27838;43.858;25.974;2023-02-11T01:26:16;103139.03;;;1.94;45.54
42169;BME280;27838;43.858;25.974;2023-02-11T01:28:43;103137.34;;;1.95;45.72
42169;BME280;27838;43.858;25.974;2023-02-11T01:31:09;103148.53;;;1.95;45.51
42169;BME280;27838;43.858;25.974;2023-02-11T01:33:36;103141.03;;;1.98;45.31
42169;BME280;27838;43.858;25.974;2023-02-11T01:36:04;103138.72;;;2.01;45.79
42169;BME280;27838;43.858;25.974;2023-02-11T01:38:31;103133.44;;;2.00;45.68
42169;BME280;27838;43.858;25.974;2023-02-11T01:41:06;103132.00;;;2.03;46.15
42169;BME280;27838;43.858;25.974;2023-02-11T01:43:37;103137.03;;;2.02;45.75
42169;BME280;27838;43.858;25.974;2023-02-11T01:48:45;103136.13;;;2.01;45.41
42169;BME280;27838;43.858;25.974;2023-02-11T01:51:18;103133.44;;;2.00;45.60
42169;BME280;27838;43.858;25.974;2023-02-11T01:53:47;103128.41;;;2.01;45.86
42169;BME280;27838;43.858;25.974;2023-02-11T01:56:32;103131.75;;;2.00;45.83
42169;BME280;27838;43.858;25.974;2023-02-11T01:59:26;103133.56;;;2.01;45.56
42169;BME280;27838;43.858;25.974;2023-02-11T02:01:57;103128.41;;;2.01;45.50
42169;BME280;27838;43.858;25.974;2023-02-11T02:04:27;103134.34;;;2.00;45.84
42169;BME280;27838;43.858;25.974;2023-02-11T02:07:04;103132.44;;;1.98;45.65
42169;BME280;27838;43.858;25.974;2023-02-11T02:09:36;103124.84;;;1.99;45.28
42169;BME280;27838;43.858;25.974;2023-02-11T02:12:05;103122.28;;;1.99;45.96
42169;BME280;27838;43.858;25.974;2023-02-11T02:14:32;103120.72;;;2.01;45.97
42169;BME280;27838;43.858;25.974;2023-02-11T02:16:58;103119.78;;;2.01;45.54
42169;BME280;27838;43.858;25.974;2023-02-11T02:23:27;103136.47;;;1.94;46.11
42169;BME280;27838;43.858;25.974;2023-02-11T02:34:28;103130.19;;;1.79;46.10
42169;BME280;27838;43.858;25.974;2023-02-11T02:37:08;103111.94;;;1.76;45.83
42169;BME280;27838;43.858;25.974;2023-02-11T02:39:38;103120.13;;;1.70;46.18
42169;BME280;27838;43.858;25.974;2023-02-11T02:42:05;103109.72;;;1.68;46.27
42169;BME280;27838;43.858;25.974;2023-02-11T02:44:32;103112.53;;;1.72;45.95
42169;BME280;27838;43.858;25.974;2023-02-11T02:46:59;103121.00;;;1.70;45.83
42169;BME280;27838;43.858;25.974;2023-02-11T02:49:25;103115.50;;;1.66;46.40
42169;BME280;27838;43.858;25.974;2023-02-11T02:54:57;103111.03;;;1.63;46.43
42169;BME280;27838;43.858;25.974;2023-02-11T02:57:46;103104.31;;;1.65;46.02
42169;BME280;27838;43.858;25.974;2023-02-11T03:03:04;103111.03;;;1.63;46.67
42169;BME280;27838;43.858;25.974;2023-02-11T03:08:38;103100.09;;;1.54;46.60
42169;BME280;27838;43.858;25.974;2023-02-11T03:11:08;103098.84;;;1.49;46.22
42169;BME280;27838;43.858;25.974;2023-02-11T03:13:38;103092.97;;;1.40;46.29
42169;BME280;27838;43.858;25.974;2023-02-11T03:16:12;103098.91;;;1.39;46.84
42169;BME280;27838;43.858;25.974;2023-02-11T03:18:43;103096.34;;;1.39;46.54
42169;BME280;27838;43.858;25.974;2023-02-11T03:21:15;103100.94;;;1.43;46.73
42169;BME280;27838;43.858;25.974;2023-02-11T03:23:57;103096.78;;;1.45;46.22
42169;BME280;27838;43.858;25.974;2023-02-11T03:26:39;103079.94;;;1.37;46.05
42169;BME280;27838;43.858;25.974;2023-02-11T03:32:22;103083.50;;;1.39;46.55
42169;BME280;27838;43.858;25.974;2023-02-11T03:35:09;103085.84;;;1.36;46.29
42169;BME280;27838;43.858;25.974;2023-02-11T03:37:44;103073.66;;;1.33;46.74
42169;BME280;27838;43.858;25.974;2023-02-11T03:40:19;103074.31;;;1.30;45.70
42169;BME280;27838;43.858;25.974;2023-02-11T03:42:52;103077.69;;;1.29;46.22
42169;BME280;27838;43.858;25.974;2023-02-11T03:45:21;103068.94;;;1.27;45.88
42169;BME280;27838;43.858;25.974;2023-02-11T03:47:56;103072.41;;;1.28;45.72
42169;BME280;27838;43.858;25.974;2023-02-11T03:50:25;103073.31;;;1.28;45.50
42169;BME280;27838;43.858;25.974;2023-02-11T03:52:54;103063.09;;;1.18;45.26
42169;BME280;27838;43.858;25.974;2023-02-11T03:55:22;103065.13;;;1.22;45.38
42169;BME280;27838;43.858;25.974;2023-02-11T03:57:50;103064.34;;;1.23;46.21
42169;BME280;27838;43.858;25.974;2023-02-11T04:00:17;103072.06;;;1.23;45.62
42169;BME280;27838;43.858;25.974;2023-02-11T04:02:43;103071.28;;;1.24;45.49
42169;BME280;27838;43.858;25.974;2023-02-11T04:05:13;103071.81;;;1.20;45.07
42169;BME280;27838;43.858;25.974;2023-02-11T04:07:40;103069.13;;;1.19;45.14
42169;BME280;27838;43.858;25.974;2023-02-11T04:10:07;103063.53;;;1.12;45.82
42169;BME280;27838;43.858;25.974;2023-02-11T04:12:34;103068.94;;;1.16;45.55
42169;BME280;27838;43.858;25.974;2023-02-11T04:15:00;103067.25;;;1.16;45.29
42169;BME280;27838;43.858;25.974;2023-02-11T04:17:27;103071.13;;;1.11;45.61
42169;BME280;27838;43.858;25.974;2023-02-11T04:19:53;103067.06;;;1.03;45.43
42169;BME280;27838;43.858;25.974;2023-02-11T04:22:20;103065.94;;;0.99;46.16
42169;BME280;27838;43.858;25.974;2023-02-11T04:24:46;103069.31;;;0.98;46.38
42169;BME280;27838;43.858;25.974;2023-02-11T04:27:13;103069.53;;;1.01;46.29
42169;BME280;27838;43.858;25.974;2023-02-11T04:29:39;103067.31;;;1.06;45.77
42169;BME280;27838;43.858;25.974;2023-02-11T04:32:06;103068.56;;;1.11;46.12
42169;BME280;27838;43.858;25.974;2023-02-11T04:34:32;103063.00;;;1.17;45.42
42169;BME280;27838;43.858;25.974;2023-02-11T04:36:59;103062.47;;;1.21;45.62
42169;BME280;27838;43.858;25.974;2023-02-11T04:39:25;103056.88;;;1.26;45.20
42169;BME280;27838;43.858;25.974;2023-02-11T04:41:52;103065.84;;;1.31;44.70
42169;BME280;27838;43.858;25.974;2023-02-11T04:44:18;103067.06;;;1.37;44.97
42169;BME280;27838;43.858;25.974;2023-02-11T04:46:45;103062.94;;;1.39;44.86
42169;BME280;27838;43.858;25.974;2023-02-11T04:49:16;103057.81;;;1.39;44.61
42169;BME280;27838;43.858;25.974;2023-02-11T04:51:42;103056.22;;;1.41;44.92
42169;BME280;27838;43.858;25.974;2023-02-11T04:54:10;103056.47;;;1.44;44.31
42169;BME280;27838;43.858;25.974;2023-02-11T04:56:37;103058.81;;;1.41;44.85
42169;BME280;27838;43.858;25.974;2023-02-11T04:59:04;103064.63;;;1.38;44.90
42169;BME280;27838;43.858;25.974;2023-02-11T05:01:31;103062.94;;;1.39;45.25
42169;BME280;27838;43.858;25.974;2023-02-11T05:03:58;103064.72;;;1.40;44.87
42169;BME280;27838;43.858;25.974;2023-02-11T05:06:25;103075.00;;;1.40;45.30
42169;BME280;27838;43.858;25.974;2023-02-11T05:08:51;103089.53;;;1.39;44.88
42169;BME280;27838;43.858;25.974;2023-02-11T05:11:21;103078.81;;;1.33;46.05
42169;BME280;27838;43.858;25.974;2023-02-11T05:13:47;103084.59;;;1.30;45.61
42169;BME280;27838;43.858;25.974;2023-02-11T05:16:15;103080.13;;;1.28;45.00
42169;BME280;27838;43.858;25.974;2023-02-11T05:18:43;103069.38;;;1.22;44.61
42169;BME280;27838;43.858;25.974;2023-02-11T05:21:13;103073.31;;;1.28;44.73
42169;BME280;27838;43.858;25.974;2023-02-11T05:23:40;103074.63;;;1.23;44.91
42169;BME280;27838;43.858;25.974;2023-02-11T05:26:07;103069.56;;;1.13;44.95
42169;BME280;27838;43.858;25.974;2023-02-11T05:28:34;103075.78;;;1.05;45.31
42169;BME280;27838;43.858;25.974;2023-02-11T05:31:00;103082.47;;;1.03;45.54
42169;BME280;27838;43.858;25.974;2023-02-11T05:33:27;103084.47;;;0.95;45.58
42169;BME280;27838;43.858;25.974;2023-02-11T05:36:02;103086.91;;;0.93;45.39
42169;BME280;27838;43.858;25.974;2023-02-11T05:38:29;103094.50;;;0.92;45.41
42169;BME280;27838;43.858;25.974;2023-02-11T05:40:56;103092.38;;;0.86;45.89
42169;BME280;27838;43.858;25.974;2023-02-11T05:43:23;103097.50;;;0.86;46.15
42169;BME280;27838;43.858;25.974;2023-02-11T05:45:50;103099.88;;;0.95;45.45
42169;BME280;27838;43.858;25.974;2023-02-11T05:48:16;103090.22;;;1.60;44.63
42169;BME280;27838;43.858;25.974;2023-02-11T05:50:43;103100.91;;;2.00;43.88
42169;BME280;27838;43.858;25.974;2023-02-11T05:53:10;103103.06;;;2.55;43.02
42169;BME280;27838;43.858;25.974;2023-02-11T05:55:37;103107.94;;;3.51;41.68
42169;BME280;27838;43.858;25.974;2023-02-11T05:58:04;103105.25;;;4.14;39.47
42169;BME280;27838;43.858;25.974;2023-02-11T06:00:32;103109.88;;;4.47;38.65
42169;BME280;27838;43.858;25.974;2023-02-11T06:02:59;103110.94;;;4.64;38.66
42169;BME280;27838;43.858;25.974;2023-02-11T06:05:25;103115.78;;;4.72;39.54
42169;BME280;27838;43.858;25.974;2023-02-11T06:07:52;103111.31;;;4.70;39.15
42169;BME280;27838;43.858;25.974;2023-02-11T06:10:18;103114.91;;;4.59;38.22
42169;BME280;27838;43.858;25.974;2023-02-11T06:12:45;103116.53;;;4.43;38.21
42169;BME280;27838;43.858;25.974;2023-02-11T06:15:11;103114.47;;;4.11;38.88
42169;BME280;27838;43.858;25.974;2023-02-11T06:17:38;103112.03;;;3.74;40.36
42169;BME280;27838;43.858;25.974;2023-02-11T06:20:06;103107.66;;;3.46;40.83
42169;BME280;27838;43.858;25.974;2023-02-11T06:22:34;103112.31;;;3.27;40.96
42169;BME280;27838;43.858;25.974;2023-02-11T06:25:01;103118.72;;;3.07;41.62
42169;BME280;27838;43.858;25.974;2023-02-11T06:27:28;103123.69;;;2.92;42.02
42169;BME280;27838;43.858;25.974;2023-02-11T06:29:55;103105.38;;;2.75;41.89
42169;BME280;27838;43.858;25.974;2023-02-11T06:32:22;103110.19;;;2.71;41.56
42169;BME280;27838;43.858;25.974;2023-02-11T06:34:48;103107.19;;;2.64;41.37
42169;BME280;27838;43.858;25.974;2023-02-11T06:37:15;103103.41;;;2.48;41.82
42169;BME280;27838;43.858;25.974;2023-02-11T06:39:43;103103.31;;;2.46;41.42
42169;BME280;27838;43.858;25.974;2023-02-11T06:42:09;103096.50;;;2.35;41.81
42169;BME280;27838;43.858;25.974;2023-02-11T06:44:36;103102.66;;;2.25;41.47
42169;BME280;27838;43.858;25.974;2023-02-11T06:47:03;103104.25;;;2.11;41.92
42169;BME280;27838;43.858;25.974;2023-02-11T06:49:29;103095.97;;;2.03;42.38
42169;BME280;27838;43.858;25.974;2023-02-11T06:51:56;103096.97;;;2.05;42.69
42169;BME280;27838;43.858;25.974;2023-02-11T06:54:22;103097.88;;;2.06;42.88
42169;BME280;27838;43.858;25.974;2023-02-11T06:56:49;103104.03;;;2.08;42.77
42169;BME280;27838;43.858;25.974;2023-02-11T06:59:17;103104.34;;;2.13;43.04
42169;BME280;27838;43.858;25.974;2023-02-11T07:01:45;103098.56;;;2.15;43.17
42169;BME280;27838;43.858;25.974;2023-02-11T07:04:12;103092.06;;;2.08;42.72
42169;BME280;27838;43.858;25.974;2023-02-11T07:06:39;103088.50;;;2.06;43.10
42169;BME280;27838;43.858;25.974;2023-02-11T07:09:07;103096.09;;;2.05;43.00
42169;BME280;27838;43.858;25.974;2023-02-11T07:11:33;103089.84;;;2.01;43.24
42169;BME280;27838;43.858;25.974;2023-02-11T07:14:03;103094.63;;;1.97;42.87
42169;BME280;27838;43.858;25.974;2023-02-11T07:16:31;103107.03;;;2.02;43.17
42169;BME280;27838;43.858;25.974;2023-02-11T07:18:57;103098.09;;;1.97;43.19
42169;BME280;27838;43.858;25.974;2023-02-11T07:21:24;103094.63;;;1.97;43.04
42169;BME280;27838;43.858;25.974;2023-02-11T07:23:50;103089.59;;;1.98;43.38
42169;BME280;27838;43.858;25.974;2023-02-11T07:26:19;103096.56;;;1.99;43.32
42169;BME280;27838;43.858;25.974;2023-02-11T07:28:47;103095.19;;;2.04;43.87
42169;BME280;27838;43.858;25.974;2023-02-11T07:31:20;103104.59;;;2.16;43.51
42169;BME280;27838;43.858;25.974;2023-02-11T07:33:47;103098.31;;;2.24;43.99
42169;BME280;27838;43.858;25.974;2023-02-11T07:36:15;103092.84;;;2.31;43.73
42169;BME280;27838;43.858;25.974;2023-02-11T07:38:41;103086.63;;;2.41;43.47
42169;BME280;27838;43.858;25.974;2023-02-11T07:41:17;103080.47;;;2.51;43.11
42169;BME280;27838;43.858;25.974;2023-02-11T07:43:44;103080.91;;;2.57;43.45
42169;BME280;27838;43.858;25.974;2023-02-11T07:46:15;103071.72;;;2.60;43.03
42169;BME280;27838;43.858;25.974;2023-02-11T07:48:42;103077.81;;;2.74;42.89
42169;BME280;27838;43.858;25.974;2023-02-11T07:51:09;103074.69;;;2.78;43.27
42169;BME280;27838;43.858;25.974;2023-02-11T07:53:36;103071.53;;;2.82;43.01
42169;BME280;27838;43.858;25.974;2023-02-11T07:56:04;103065.44;;;2.94;42.94
42169;BME280;27838;43.858;25.974;2023-02-11T07:58:31;103061.81;;;3.03;42.63
42169;BME280;27838;43.858;25.974;2023-02-11T08:01:07;103054.78;;;3.14;42.44
42169;BME280;27838;43.858;25.974;2023-02-11T08:03:35;103051.88;;;3.21;42.63
42169;BME280;27838;43.858;25.974;2023-02-11T08:06:13;103052.25;;;3.28;42.38
42169;BME280;27838;43.858;25.974;2023-02-11T08:08:40;103052.69;;;3.34;42.48
42169;BME280;27838;43.858;25.974;2023-02-11T08:11:09;103049.22;;;3.47;42.35
42169;BME280;27838;43.858;25.974;2023-02-11T08:13:36;103039.03;;;3.62;41.94
42169;BME280;27838;43.858;25.974;2023-02-11T08:16:04;103041.50;;;3.73;42.30
42169;BME280;27838;43.858;25.974;2023-02-11T08:18:31;103030.31;;;3.86;42.50
42169;BME280;27838;43.858;25.974;2023-02-11T08:21:08;103037.84;;;3.96;42.22
42169;BME280;27838;43.858;25.974;2023-02-11T08:23:36;103018.00;;;3.82;41.87
42169;BME280;27838;43.858;25.974;2023-02-11T08:26:05;103041.13;;;3.81;42.03
42169;BME280;27838;43.858;25.974;2023-02-11T08:28:40;103041.63;;;3.75;42.86
42169;BME280;27838;43.858;25.974;2023-02-11T08:31:13;103036.06;;;3.82;42.47
42169;BME280;27838;43.858;25.974;2023-02-11T08:33:40;103037.03;;;3.84;43.19
42169;BME280;27838;43.858;25.974;2023-02-11T08:36:30;103041.22;;;3.95;42.82
42169;BME280;27838;43.858;25.974;2023-02-11T08:38:56;103033.56;;;4.10;42.41
42169;BME280;27838;43.858;25.974;2023-02-11T08:41:23;103032.81;;;4.26;42.35
42169;BME280;27838;43.858;25.974;2023-02-11T08:43:50;103028.06;;;4.32;41.88
42169;BME280;27838;43.858;25.974;2023-02-11T08:46:18;103021.28;;;4.34;42.12
42169;BME280;27838;43.858;25.974;2023-02-11T08:48:46;103030.97;;;4.52;42.17
42169;BME280;27838;43.858;25.974;2023-02-11T08:51:15;103036.53;;;4.58;42.28
42169;BME280;27838;43.858;25.974;2023-02-11T08:53:43;103032.72;;;4.66;41.89
42169;BME280;27838;43.858;25.974;2023-02-11T08:56:10;103029.81;;;4.75;42.22
42169;BME280;27838;43.858;25.974;2023-02-11T08:58:38;103037.97;;;4.96;41.63
42169;BME280;27838;43.858;25.974;2023-02-11T09:01:12;103041.66;;;5.00;42.14
42169;BME280;27838;43.858;25.974;2023-02-11T09:03:39;103032.00;;;4.97;41.61
42169;BME280;27838;43.858;25.974;2023-02-11T09:06:08;103031.13;;;4.97;41.63
42169;BME280;27838;43.858;25.974;2023-02-11T09:08:36;103035.41;;;5.11;42.28
42169;BME280;27838;43.858;25.974;2023-02-11T09:11:04;103027.22;;;5.33;41.48
42169;BME280;27838;43.858;25.974;2023-02-11T09:13:31;103027.03;;;5.45;42.03
42169;BME280;27838;43.858;25.974;2023-02-11T09:16:00;103025.09;;;5.56;41.22
42169;BME280;27838;43.858;25.974;2023-02-11T09:18:27;103026.13;;;5.74;41.45
42169;BME280;27838;43.858;25.974;2023-02-11T09:21:04;103019.09;;;5.72;41.13
42169;BME280;27838;43.858;25.974;2023-02-11T09:23:31;103016.97;;;5.64;41.68
42169;BME280;27838;43.858;25.974;2023-02-11T09:26:09;103020.06;;;5.59;42.11
42169;BME280;27838;43.858;25.974;2023-02-11T09:28:35;103006.16;;;5.72;41.25
42169;BME280;27838;43.858;25.974;2023-02-11T09:31:07;103000.47;;;5.94;41.01
42169;BME280;27838;43.858;25.974;2023-02-11T09:33:34;102999.56;;;6.08;40.38
42169;BME280;27838;43.858;25.974;2023-02-11T09:36:04;102992.63;;;6.23;40.14
42169;BME280;27838;43.858;25.974;2023-02-11T09:38:31;102981.16;;;6.35;39.56
42169;BME280;27838;43.858;25.974;2023-02-11T09:40:59;102979.69;;;6.40;38.70
42169;BME280;27838;43.858;25.974;2023-02-11T09:43:35;102971.28;;;6.44;39.07
42169;BME280;27838;43.858;25.974;2023-02-11T09:46:04;102966.19;;;6.46;38.95
42169;BME280;27838;43.858;25.974;2023-02-11T09:48:37;102965.84;;;6.56;39.22
42169;BME280;27838;43.858;25.974;2023-02-11T09:51:15;102966.41;;;6.67;38.78
42169;BME280;27838;43.858;25.974;2023-02-11T09:53:44;102962.72;;;6.79;38.56
42169;BME280;27838;43.858;25.974;2023-02-11T09:56:13;102951.47;;;6.95;38.07
42169;BME280;27838;43.858;25.974;2023-02-11T09:58:41;102949.50;;;7.08;37.86
42169;BME280;27838;43.858;25.974;2023-02-11T10:01:46;102941.81;;;7.27;37.05
42169;BME280;27838;43.858;25.974;2023-02-11T10:10:32;102928.97;;;7.30;37.48
42169;BME280;27838;43.858;25.974;2023-02-11T10:16:23;102922.00;;;7.11;37.13
42169;BME280;27838;43.858;25.974;2023-02-11T10:19:12;102916.31;;;7.18;37.72
42169;BME280;27838;43.858;25.974;2023-02-11T10:21:58;102913.19;;;7.44;37.09
42169;BME280;27838;43.858;25.974;2023-02-11T10:24:30;102906.81;;;7.55;37.13
42169;BME280;27838;43.858;25.974;2023-02-11T10:26:57;102899.16;;;7.58;37.21
42169;BME280;27838;43.858;25.974;2023-02-11T10:32:42;102882.38;;;7.69;36.77
42169;BME280;27838;43.858;25.974;2023-02-11T10:35:17;102875.25;;;7.65;37.11
42169;BME280;27838;43.858;25.974;2023-02-11T10:37:45;102873.50;;;7.64;37.20
42169;BME280;27838;43.858;25.974;2023-02-11T10:42:46;102871.38;;;7.75;37.21
42169;BME280;27838;43.858;25.974;2023-02-11T10:45:49;102865.31;;;7.74;36.87
42169;BME280;27838;43.858;25.974;2023-02-11T10:53:36;102844.69;;;7.78;38.00
42169;BME280;27838;43.858;25.974;2023-02-11T10:56:04;102845.91;;;7.66;38.44
42169;BME280;27838;43.858;25.974;2023-02-11T10:58:38;102829.03;;;7.76;38.41
42169;BME280;27838;43.858;25.974;2023-02-11T11:01:06;102833.47;;;7.79;37.86
42169;BME280;27838;43.858;25.974;2023-02-11T11:03:37;102838.19;;;7.87;38.78
42169;BME280;27838;43.858;25.974;2023-02-11T11:06:07;102825.69;;;7.98;37.86
42169;BME280;27838;43.858;25.974;2023-02-11T11:08:49;102827.44;;;8.19;37.40
42169;BME280;27838;43.858;25.974;2023-02-11T11:11:18;102815.63;;;8.25;37.60
42169;BME280;27838;43.858;25.974;2023-02-11T11:16:21;102811.38;;;8.27;37.18
42169;BME280;27838;43.858;25.974;2023-02-11T11:18:51;102806.38;;;8.32;36.78
42169;BME280;27838;43.858;25.974;2023-02-11T11:21:26;102801.81;;;8.46;37.31
42169;BME280;27838;43.858;25.974;2023-02-11T11:23:59;102793.88;;;8.64;37.03
42169;BME280;27838;43.858;25.974;2023-02-11T11:26:46;102791.06;;;8.80;35.85
42169;BME280;27838;43.858;25.974;2023-02-11T11:29:32;102787.16;;;8.69;36.03
42169;BME280;27838;43.858;25.974;2023-02-11T11:32:03;102785.13;;;8.62;35.83
42169;BME280;27838;43.858;25.974;2023-02-11T11:34:32;102782.59;;;8.63;35.25
42169;BME280;27838;43.858;25.974;2023-02-11T11:37:08;102774.66;;;8.60;35.83
42169;BME280;27838;43.858;25.974;2023-02-11T11:39:35;102772.38;;;8.47;35.39
42169;BME280;27838;43.858;25.974;2023-02-11T11:42:04;102772.56;;;8.52;35.46
42169;BME280;27838;43.858;25.974;2023-02-11T11:45:02;102775.69;;;8.43;35.32
42169;BME280;27838;43.858;25.974;2023-02-11T11:48:27;102763.56;;;8.43;35.75
42169;BME280;27838;43.858;25.974;2023-02-11T11:51:04;102753.44;;;8.49;35.69
42169;BME280;27838;43.858;25.974;2023-02-11T11:53:59;102742.84;;;8.45;35.45
42169;BME280;27838;43.858;25.974;2023-02-11T11:56:31;102740.78;;;8.38;35.16
42169;BME280;27838;43.858;25.974;2023-02-11T11:59:02;102740.00;;;8.40;35.41
42169;BME280;27838;43.858;25.974;2023-02-11T12:07:25;102722.00;;;8.03;35.55
42169;BME280;27838;43.858;25.974;2023-02-11T12:18:42;102687.94;;;7.95;36.25
42169;BME280;27838;43.858;25.974;2023-02-11T12:21:14;102690.78;;;8.01;35.13
42169;BME280;27838;43.858;25.974;2023-02-11T12:26:44;102675.78;;;8.15;34.98
42169;BME280;27838;43.858;25.974;2023-02-11T12:29:35;102667.81;;;8.33;35.51
42169;BME280;27838;43.858;25.974;2023-02-11T12:32:29;102654.84;;;8.33;34.79
42169;BME280;27838;43.858;25.974;2023-02-11T12:35:27;102654.22;;;8.39;34.99
42169;BME280;27838;43.858;25.974;2023-02-11T12:40:58;102655.78;;;8.35;34.75
42169;BME280;27838;43.858;25.974;2023-02-11T12:43:41;102654.47;;;8.45;34.61
42169;BME280;27838;43.858;25.974;2023-02-11T12:49:24;102642.69;;;8.32;34.42
42169;BME280;27838;43.858;25.974;2023-02-11T12:52:10;102641.19;;;8.16;34.50
42169;BME280;27838;43.858;25.974;2023-02-11T12:54:47;102632.31;;;8.11;34.83
42169;BME280;27838;43.858;25.974;2023-02-11T12:57:28;102632.56;;;8.17;34.63
42169;BME280;27838;43.858;25.974;2023-02-11T13:00:19;102631.03;;;8.22;33.92
42169;BME280;27838;43.858;25.974;2023-02-11T13:08:18;102620.63;;;8.43;33.93
42169;BME280;27838;43.858;25.974;2023-02-11T13:10:47;102618.97;;;8.45;33.83
42169;BME280;27838;43.858;25.974;2023-02-11T13:13:30;102601.47;;;8.41;34.27
42169;BME280;27838;43.858;25.974;2023-02-11T13:16:07;102607.75;;;8.46;34.92
42169;BME280;27838;43.858;25.974;2023-02-11T13:24:17;102588.75;;;8.47;34.68
42169;BME280;27838;43.858;25.974;2023-02-11T13:27:03;102587.38;;;8.57;33.44
42169;BME280;27838;43.858;25.974;2023-02-11T13:33:34;102583.09;;;8.82;32.91
42169;BME280;27838;43.858;25.974;2023-02-11T13:35:38;102573.56;;;8.82;32.62
42169;BME280;27838;43.858;25.974;2023-02-11T13:38:28;102566.38;;;8.75;32.15
42169;BME280;27838;43.858;25.974;2023-02-11T13:41:05;102562.63;;;8.67;32.54
42169;BME280;27838;43.858;25.974;2023-02-11T13:43:38;102558.69;;;8.78;33.12
42169;BME280;27838;43.858;25.974;2023-02-11T13:46:14;102560.03;;;8.67;32.63
42169;BME280;27838;43.858;25.974;2023-02-11T13:48:47;102557.59;;;8.49;32.77
42169;BME280;27838;43.858;25.974;2023-02-11T13:51:18;102555.66;;;8.43;32.58
42169;BME280;27838;43.858;25.974;2023-02-11T13:53:59;102549.78;;;8.47;33.64
42169;BME280;27838;43.858;25.974;2023-02-11T13:56:36;102555.72;;;8.45;33.29
42169;BME280;27838;43.858;25.974;2023-02-11T14:04:33;102549.50;;;8.41;33.16
42169;BME280;27838;43.858;25.974;2023-02-11T14:07:32;102548.63;;;8.41;32.59
42169;BME280;27838;43.858;25.974;2023-02-11T14:16:12;102538.28;;;8.20;33.46
42169;BME280;27838;43.858;25.974;2023-02-11T14:18:58;102542.41;;;8.15;33.17
42169;BME280;27838;43.858;25.974;2023-02-11T14:29:15;102528.00;;;8.23;34.03
42169;BME280;27838;43.858;25.974;2023-02-11T14:43:37;102520.91;;;8.19;33.91
42169;BME280;27838;43.858;25.974;2023-02-11T14:46:05;102510.31;;;8.12;33.52
42169;BME280;27838;43.858;25.974;2023-02-11T14:48:33;102505.59;;;8.02;33.84
42169;BME280;27838;43.858;25.974;2023-02-11T14:51:08;102485.78;;;7.83;34.55
42169;BME280;27838;43.858;25.974;2023-02-11T14:53:36;102496.06;;;7.80;34.61
42169;BME280;27838;43.858;25.974;2023-02-11T14:56:23;102501.75;;;7.71;35.02
42169;BME280;27838;43.858;25.974;2023-02-11T14:58:51;102494.78;;;7.70;35.03
42169;BME280;27838;43.858;25.974;2023-02-11T15:01:30;102489.38;;;7.64;35.00
42169;BME280;27838;43.858;25.974;2023-02-11T15:03:58;102486.00;;;7.67;35.53
42169;BME280;27838;43.858;25.974;2023-02-11T15:09:02;102485.41;;;7.51;36.00
42169;BME280;27838;43.858;25.974;2023-02-11T15:11:33;102479.56;;;7.57;36.09